createdAt,value
2023-02-20T00:04:36.916Z,97591.19
2023-02-20T00:09:40.821Z,97592.03
2023-02-20T00:14:45.007Z,97584.38
2023-02-20T00:19:47.792Z,97587.38
2023-02-20T00:24:51.021Z,97597.41
2023-02-20T00:29:55.500Z,97596.31
2023-02-20T00:34:58.383Z,97587.09
2023-02-20T00:40:01.453Z,97583.34
2023-02-20T00:45:06.995Z,97581.44
2023-02-20T00:50:10.984Z,97581.66
2023-02-20T00:55:14.127Z,97580.31
2023-02-20T01:00:22.394Z,97577.00
2023-02-20T01:05:25.856Z,97578.94
2023-02-20T01:10:29.131Z,97578.94
2023-02-20T01:15:33.457Z,97577.59
2023-02-20T01:20:36.301Z,97574.88
2023-02-20T01:25:39.285Z,97577.84
2023-02-20T01:30:43.446Z,97569.94
2023-02-20T01:35:46.270Z,97579.19
2023-02-20T01:40:50.190Z,97578.94
2023-02-20T01:45:54.406Z,97589.78
2023-02-20T01:50:59.736Z,97583.53
2023-02-20T01:56:04.881Z,97574.31
2023-02-20T02:01:09.264Z,97570.78
2023-02-20T02:06:15.051Z,97567.25
2023-02-20T02:11:19.958Z,97568.56
2023-02-20T02:16:31.669Z,97556.88
2023-02-20T02:22:06.085Z,97557.41
2023-02-20T02:27:44.808Z,97565.28
2023-02-20T02:33:07.043Z,97565.84
2023-02-20T02:38:17.925Z,97569.41
2023-02-20T02:43:26.105Z,97564.78
2023-02-20T02:48:32.236Z,97564.22
2023-02-20T02:53:36.380Z,97565.28
2023-02-20T02:58:39.235Z,97572.06
2023-02-20T03:03:45.118Z,97561.44
2023-02-20T03:08:57.448Z,97557.66
2023-02-20T03:14:23.226Z,97557.16
2023-02-20T03:19:29.226Z,97566.09
2023-02-20T03:24:54.425Z,97562.00
2023-02-20T03:29:59.730Z,97559.81
2023-02-20T03:35:21.771Z,97553.78
2023-02-20T03:40:43.978Z,97553.78
2023-02-20T03:45:48.490Z,97544.59
2023-02-20T03:50:51.557Z,97545.41
2023-02-20T03:55:56.673Z,97545.66
2023-02-20T04:01:01.649Z,97535.88
2023-02-20T04:06:05.565Z,97538.59
2023-02-20T04:11:11.784Z,97541.59
2023-02-20T04:16:15.916Z,97540.75
2023-02-20T04:21:22.962Z,97549.97
2023-02-20T04:26:27.418Z,97545.09
2023-02-20T04:31:30.363Z,97543.47
2023-02-20T04:36:33.448Z,97543.47
2023-02-20T04:41:38.015Z,97548.06
2023-02-20T04:46:40.797Z,97549.97
2023-02-20T04:51:43.975Z,97551.06
2023-02-20T04:56:48.506Z,97545.63
2023-02-20T05:01:52.186Z,97538.03
2023-02-20T05:06:56.310Z,97526.94
2023-02-20T05:12:00.810Z,97522.84
2023-02-20T05:17:03.936Z,97510.06
2023-02-20T05:22:22.662Z,97508.97
2023-02-20T05:27:27.978Z,97514.63
2023-02-20T05:32:31.962Z,97527.38
2023-02-20T05:37:35.072Z,97534.44
2023-02-20T05:42:42.623Z,97535.81
2023-02-20T05:47:45.667Z,97535.81
2023-02-20T05:52:48.677Z,97534.44
2023-02-20T05:57:52.807Z,97530.91
2023-02-20T06:02:55.675Z,97525.75
2023-02-20T06:07:58.778Z,97518.94
2023-02-20T06:13:02.958Z,97502.41
2023-02-20T06:18:05.794Z,97501.31
2023-02-20T06:23:08.596Z,97519.22
2023-02-20T06:28:12.972Z,97519.50
2023-02-20T06:33:15.851Z,97524.94
2023-02-20T06:38:18.775Z,97528.13
2023-02-20T06:43:22.973Z,97531.69
2023-02-20T06:48:25.894Z,97520.56
2023-02-20T06:53:28.766Z,97517.84
2023-02-20T06:58:33.670Z,97511.94
2023-02-20T07:03:37.113Z,97512.47
2023-02-20T07:08:39.956Z,97500.00
2023-02-20T07:13:44.921Z,97506.25
2023-02-20T07:18:47.747Z,97513.81
2023-02-20T07:23:50.834Z,97520.06
2023-02-20T07:28:55.564Z,97513.56
2023-02-20T07:33:58.677Z,97514.41
2023-02-20T07:39:03.043Z,97528.50
2023-02-20T07:44:09.502Z,97521.75
2023-02-20T07:49:12.866Z,97534.50
2023-02-20T07:54:15.667Z,97531.78
2023-02-20T07:59:19.896Z,97536.41
2023-02-20T08:04:22.862Z,97533.69
2023-02-20T08:09:25.938Z,97522.31
2023-02-20T08:14:31.554Z,97515.56
2023-02-20T08:19:34.419Z,97511.22
2023-02-20T08:24:37.538Z,97508.81
2023-02-20T08:29:41.687Z,97498.78
2023-02-20T08:34:44.852Z,97501.50
2023-02-20T08:39:47.675Z,97481.41
2023-02-20T08:44:51.841Z,97486.00
2023-02-20T08:49:54.665Z,97483.88
2023-02-20T08:54:57.659Z,97483.06
2023-02-20T09:00:01.894Z,97479.53
2023-02-20T09:05:06.598Z,97479.53
2023-02-20T09:10:10.569Z,97479.25
2023-02-20T09:15:17.908Z,97479.25
2023-02-20T09:20:22.964Z,97474.13
2023-02-20T09:25:26.031Z,97478.19
2023-02-20T09:30:30.330Z,97475.22
2023-02-20T09:35:33.502Z,97468.72
2023-02-20T09:40:36.410Z,97469.53
2023-02-20T09:45:42.514Z,97463.28
2023-02-20T09:50:50.298Z,97464.94
2023-02-20T09:55:53.858Z,97458.69
2023-02-20T10:01:02.054Z,97457.06
2023-02-20T10:06:13.434Z,97454.09
2023-02-20T10:11:24.795Z,97449.22
2023-02-20T10:16:34.010Z,97450.59
2023-02-20T10:21:51.314Z,97445.97
2023-02-20T10:26:56.373Z,97437.03
2023-02-20T10:32:03.364Z,97445.41
2023-02-20T10:37:10.013Z,97445.97
2023-02-20T10:42:15.632Z,97446.78
2023-02-20T10:47:24.752Z,97443.25
2023-02-20T10:52:34.489Z,97434.84
2023-02-20T10:57:40.174Z,97434.06
2023-02-20T11:02:47.659Z,97429.44
2023-02-20T11:07:51.244Z,97422.13
2023-02-20T11:12:59.313Z,97421.28
2023-02-20T11:18:05.944Z,97409.34
2023-02-20T11:23:10.234Z,97403.91
2023-02-20T11:28:20.068Z,97388.22
2023-02-20T11:33:26.494Z,97392.81
2023-02-20T11:38:35.425Z,97385.50
2023-02-20T11:43:43.625Z,97384.41
2023-02-20T11:49:02.229Z,97376.28
2023-02-20T11:54:14.890Z,97369.50
2023-02-20T11:59:29.546Z,97362.44
2023-02-20T12:04:33.768Z,97350.50
2023-02-20T12:09:36.604Z,97348.59
2023-02-20T12:14:39.470Z,97332.31
2023-02-20T12:19:51.247Z,97324.75
2023-02-20T12:25:05.124Z,97326.63
2023-02-20T12:30:16.939Z,97321.19
2023-02-20T12:35:41.719Z,97312.50
2023-02-20T12:40:56.038Z,97302.72
2023-02-20T12:46:06.266Z,97292.53
2023-02-20T12:51:20.555Z,97276.66
2023-02-20T12:56:31.470Z,97274.69
2023-02-20T13:01:40.261Z,97259.75
2023-02-20T13:06:48.841Z,97254.78
2023-02-20T13:11:54.765Z,97245.94
2023-02-20T13:17:05.547Z,97238.69
2023-02-20T13:22:09.775Z,97231.00
2023-02-20T13:27:29.179Z,97218.38
2023-02-20T13:32:33.996Z,97205.41
2023-02-20T13:37:55.375Z,97197.28
2023-02-20T13:43:29.573Z,97188.06
2023-02-20T13:48:43.778Z,97176.81
2023-02-20T13:53:50.577Z,97170.25
2023-02-20T13:58:56.247Z,97163.88
2023-02-20T14:04:03.648Z,97159.00
2023-02-20T14:09:10.858Z,97159.56
2023-02-20T14:14:25.707Z,97142.16
2023-02-20T14:19:29.823Z,97136.78
2023-02-20T14:24:33.974Z,97133.25
2023-02-20T14:29:37.648Z,97129.72
2023-02-20T14:34:49.569Z,97122.16
2023-02-20T14:39:59.510Z,97117.28
2023-02-20T14:45:04.250Z,97118.63
2023-02-20T14:50:16.908Z,97121.34
2023-02-20T14:55:21.215Z,97113.75
2023-02-20T15:00:32.167Z,97114.53
2023-02-20T15:05:35.489Z,97107.50
2023-02-20T15:10:41.172Z,97112.13
2023-02-20T15:15:47.640Z,97105.84
2023-02-20T15:20:50.594Z,97114.88
2023-02-20T15:25:54.734Z,97109.41
2023-02-20T15:31:23.271Z,97110.78
2023-02-20T15:36:27.197Z,97108.63
2023-02-20T15:41:31.360Z,97104.50
2023-02-20T15:46:34.600Z,97099.16
2023-02-20T15:51:40.229Z,97105.53
2023-02-20T15:56:44.914Z,97107.63
2023-02-20T16:01:48.620Z,97097.88
2023-02-20T16:06:51.597Z,97091.00
2023-02-20T16:11:55.777Z,97090.75
2023-02-20T16:16:58.664Z,97091.25
2023-02-20T16:22:01.509Z,97079.88
2023-02-20T16:27:21.695Z,97088.41
2023-02-20T16:32:27.116Z,97092.16
2023-02-20T16:37:30.060Z,97091.63
2023-02-20T16:42:35.655Z,97076.66
2023-02-20T16:47:38.496Z,97081.34
2023-02-20T16:52:42.253Z,97081.41
2023-02-20T16:57:46.437Z,97082.75
2023-02-20T17:02:49.305Z,97077.84
2023-02-20T17:07:52.268Z,97089.00
2023-02-20T17:12:57.630Z,97087.13
2023-02-20T17:18:01.030Z,97090.38
2023-02-20T17:23:05.577Z,97094.75
2023-02-20T17:28:10.162Z,97084.72
2023-02-20T17:33:12.986Z,97082.22
2023-02-20T17:38:15.938Z,97095.28
2023-02-20T17:43:20.128Z,97087.94
2023-02-20T17:48:23.185Z,97088.72
2023-02-20T17:53:25.998Z,97093.09
2023-02-20T17:58:30.188Z,97100.69
2023-02-20T18:03:33.053Z,97099.31
2023-02-20T18:08:35.925Z,97099.03
2023-02-20T18:13:40.122Z,97096.31
2023-02-20T18:18:43.471Z,97103.09
2023-02-20T18:23:46.538Z,97094.69
2023-02-20T18:28:50.796Z,97091.97
2023-02-20T18:33:55.386Z,97099.56
2023-02-20T18:38:58.681Z,97091.69
2023-02-20T18:44:03.030Z,97092.25
2023-02-20T18:49:05.927Z,97087.34
2023-02-20T18:54:10.678Z,97090.31
2023-02-20T18:59:14.846Z,97086.22
2023-02-20T19:04:17.893Z,97084.34
2023-02-20T19:09:22.548Z,97084.09
2023-02-20T19:14:29.211Z,97078.91
2023-02-20T19:19:34.370Z,97076.72
2023-02-20T19:24:39.422Z,97087.88
2023-02-20T19:29:45.683Z,97081.09
2023-02-20T19:34:48.790Z,97098.97
2023-02-20T19:39:51.607Z,97093.56
2023-02-20T19:44:55.781Z,97088.13
2023-02-20T19:49:58.592Z,97089.75
2023-02-20T19:55:01.435Z,97089.75
2023-02-20T20:00:06.104Z,97087.28
2023-02-20T20:05:09.458Z,97092.97
2023-02-20T20:10:12.984Z,97090.53
2023-02-20T20:15:19.429Z,97081.81
2023-02-20T20:20:23.676Z,97093.50
2023-02-20T20:25:26.506Z,97091.63
2023-02-20T20:30:32.039Z,97094.34
2023-02-20T20:35:34.991Z,97094.06
2023-02-20T20:40:38.134Z,97094.84
2023-02-20T20:45:42.253Z,97101.63
2023-02-20T20:50:45.143Z,97100.84
2023-02-20T20:55:47.997Z,97093.75
2023-02-20T21:00:54.090Z,97095.66
2023-02-20T21:05:56.984Z,97098.38
2023-02-20T21:11:01.307Z,97099.19
2023-02-20T21:16:07.548Z,97095.66
2023-02-20T21:21:10.470Z,97099.19
2023-02-20T21:26:13.684Z,97085.06
2023-02-20T21:31:20.562Z,97075.84
2023-02-20T21:36:24.302Z,97065.53
2023-02-20T21:41:44.597Z,97060.09
2023-02-20T21:46:50.748Z,97061.44
2023-02-20T21:51:53.668Z,97049.25
2023-02-20T21:56:57.035Z,97042.19
2023-02-20T22:02:01.951Z,97026.97
2023-02-20T22:07:22.687Z,97026.16
2023-02-20T22:12:43.395Z,97024.78
2023-02-20T22:18:05.239Z,97034.81
2023-02-20T22:23:25.721Z,97030.22
2023-02-20T22:28:46.237Z,97025.88
2023-02-20T22:34:07.905Z,97036.75
2023-02-20T22:39:30.567Z,97034.03
2023-02-20T22:44:51.281Z,97033.72
2023-02-20T22:50:13.090Z,97022.34
2023-02-20T22:55:33.637Z,97026.97
2023-02-20T23:00:54.145Z,97025.59
2023-02-20T23:06:18.516Z,97025.59
2023-02-20T23:11:39.614Z,97017.72
2023-02-20T23:17:00.036Z,97016.63
2023-02-20T23:22:22.046Z,97011.72
2023-02-20T23:27:42.453Z,97004.69
2023-02-20T23:33:02.975Z,97012.28
2023-02-20T23:38:24.785Z,97009.31
2023-02-20T23:43:46.708Z,97008.75
2023-02-20T23:49:07.303Z,97009.00
2023-02-20T23:54:29.186Z,97005.75
2023-02-20T23:59:49.698Z,96994.13
